createdAt,value
2019-02-18T00:00:47.966Z,16.95
2019-02-18T00:03:14.986Z,16.35
2019-02-18T00:05:42.026Z,15.05
2019-02-18T00:08:09.072Z,14.25
2019-02-18T00:10:36.113Z,16.37
2019-02-18T00:13:03.158Z,17.30
2019-02-18T00:15:30.231Z,15.35
2019-02-18T00:17:57.278Z,14.33
2019-02-18T00:20:24.320Z,14.65
2019-02-18T00:22:51.365Z,14.63
2019-02-18T00:25:18.394Z,14.93
2019-02-18T00:27:45.443Z,17.37
2019-02-18T00:30:12.459Z,15.95
2019-02-18T00:32:39.507Z,17.02
2019-02-18T00:35:08.352Z,15.50
2019-02-18T00:37:35.372Z,15.60
2019-02-18T00:40:02.435Z,16.05
2019-02-18T00:42:29.509Z,15.20
2019-02-18T00:44:56.504Z,16.50
2019-02-18T00:47:23.567Z,16.65
2019-02-18T00:49:50.593Z,16.90
2019-02-18T00:52:17.627Z,16.00
2019-02-18T00:54:44.649Z,16.12
2019-02-18T00:57:11.668Z,17.67
2019-02-18T00:59:38.685Z,14.80
2019-02-18T01:02:05.747Z,14.53
2019-02-18T01:04:32.773Z,15.15
2019-02-18T01:06:59.825Z,14.80
2019-02-18T01:09:26.894Z,14.63
2019-02-18T01:11:53.951Z,14.95
2019-02-18T01:14:20.989Z,14.63
2019-02-18T01:16:48.005Z,15.43
2019-02-18T01:19:15.030Z,14.40
2019-02-18T01:21:42.061Z,13.80
2019-02-18T01:24:09.099Z,14.60
2019-02-18T01:26:36.133Z,15.08
2019-02-18T01:29:03.152Z,13.48
2019-02-18T01:31:30.186Z,14.98
2019-02-18T01:33:57.213Z,15.93
2019-02-18T01:36:24.247Z,15.93
2019-02-18T01:38:51.253Z,14.03
2019-02-18T01:41:18.275Z,14.55
2019-02-18T01:43:45.290Z,14.63
2019-02-18T01:46:12.342Z,13.90
2019-02-18T01:48:39.450Z,12.73
2019-02-18T01:51:06.439Z,14.23
2019-02-18T01:53:33.474Z,12.78
2019-02-18T01:56:00.498Z,14.07
2019-02-18T01:58:27.518Z,14.07
2019-02-18T02:00:54.536Z,13.25
2019-02-18T02:03:21.567Z,14.95
2019-02-18T02:05:48.615Z,14.45
2019-02-18T02:08:15.633Z,13.08
2019-02-18T02:10:42.686Z,13.75
2019-02-18T02:13:32.358Z,13.62
2019-02-18T02:16:00.890Z,12.58
2019-02-18T02:18:27.925Z,13.08
2019-02-18T02:20:54.950Z,12.98
2019-02-18T02:23:21.982Z,12.40
2019-02-18T02:25:49.018Z,13.90
2019-02-18T02:28:16.054Z,13.05
2019-02-18T02:30:43.096Z,11.43
2019-02-18T02:33:10.123Z,10.70
2019-02-18T02:35:37.207Z,12.05
2019-02-18T02:38:07.556Z,10.90
2019-02-18T02:40:33.150Z,12.60
2019-02-18T02:43:00.187Z,10.63
2019-02-18T02:45:27.316Z,11.57
2019-02-18T02:47:54.382Z,12.88
2019-02-18T02:50:21.416Z,13.65
2019-02-18T02:52:48.473Z,12.98
2019-02-18T02:55:17.763Z,12.78
2019-02-18T02:57:44.808Z,11.25
2019-02-18T03:00:12.283Z,11.55
2019-02-18T03:02:39.327Z,9.55
2019-02-18T03:05:06.457Z,10.82
2019-02-18T03:07:33.487Z,11.83
2019-02-18T03:10:00.522Z,11.85
2019-02-18T03:12:27.597Z,12.47
2019-02-18T03:14:54.621Z,10.05
2019-02-18T03:17:21.692Z,12.25
2019-02-18T03:19:48.713Z,9.35
2019-02-18T03:22:15.743Z,8.55
2019-02-18T03:25:17.228Z,9.70
2019-02-18T03:27:44.289Z,10.63
2019-02-18T03:30:40.574Z,9.43
2019-02-18T03:33:07.849Z,10.15
2019-02-18T03:35:34.920Z,9.93
2019-02-18T03:38:01.965Z,10.03
2019-02-18T03:40:29.020Z,10.00
2019-02-18T03:42:56.070Z,9.88
2019-02-18T03:45:23.088Z,10.90
2019-02-18T03:47:50.130Z,10.80
2019-02-18T03:50:17.204Z,13.05
2019-02-18T03:52:44.256Z,12.53
2019-02-18T03:55:11.519Z,14.20
2019-02-18T03:57:38.901Z,13.35
2019-02-18T04:00:06.141Z,12.73
2019-02-18T04:02:33.197Z,12.82
2019-02-18T04:05:00.298Z,12.10
2019-02-18T04:07:27.390Z,12.03
2019-02-18T04:09:54.414Z,12.10
2019-02-18T04:12:21.454Z,13.58
2019-02-18T04:14:48.496Z,14.40
2019-02-18T04:17:15.559Z,13.95
2019-02-18T04:19:42.608Z,12.43
2019-02-18T04:22:09.648Z,10.65
2019-02-18T04:24:36.686Z,11.35
2019-02-18T04:27:03.752Z,10.35
2019-02-18T04:29:30.794Z,11.18
2019-02-18T04:31:57.832Z,11.63
2019-02-18T04:34:24.880Z,10.85
2019-02-18T04:36:51.924Z,10.85
2019-02-18T04:39:18.982Z,11.50
2019-02-18T04:41:46.018Z,13.85
2019-02-18T04:44:13.064Z,13.50
2019-02-18T04:46:40.088Z,13.22
2019-02-18T04:49:07.136Z,12.70
2019-02-18T04:51:34.171Z,13.50
2019-02-18T04:54:01.202Z,14.35
2019-02-18T04:56:28.223Z,13.80
2019-02-18T04:58:55.285Z,13.83
2019-02-18T05:01:22.320Z,13.85
2019-02-18T05:03:49.366Z,13.53
2019-02-18T05:06:16.417Z,13.45
2019-02-18T05:08:43.467Z,12.82
2019-02-18T05:11:10.580Z,14.95
2019-02-18T05:13:37.617Z,13.15
2019-02-18T05:16:04.673Z,14.63
2019-02-18T05:18:31.708Z,14.03
2019-02-18T05:20:58.765Z,14.10
2019-02-18T05:23:25.801Z,11.40
2019-02-18T05:25:52.838Z,12.70
2019-02-18T05:28:19.884Z,13.78
2019-02-18T05:30:46.894Z,13.08
2019-02-18T05:33:13.943Z,15.90
2019-02-18T05:35:40.961Z,12.70
2019-02-18T05:38:07.989Z,12.23
2019-02-18T05:40:35.016Z,12.40
2019-02-18T05:43:02.058Z,12.25
2019-02-18T05:45:29.109Z,11.53
2019-02-18T05:47:56.161Z,12.20
2019-02-18T05:50:23.197Z,14.55
2019-02-18T05:52:50.246Z,13.53
2019-02-18T05:55:19.396Z,16.48
2019-02-18T05:57:46.505Z,12.43
2019-02-18T06:00:14.227Z,12.55
2019-02-18T06:02:41.261Z,11.28
2019-02-18T06:05:08.313Z,9.98
2019-02-18T06:07:35.340Z,9.85
2019-02-18T06:10:02.553Z,9.35
2019-02-18T06:12:29.599Z,8.58
2019-02-18T06:14:56.650Z,7.40
2019-02-18T06:17:23.682Z,7.50
2019-02-18T06:19:50.747Z,7.70
2019-02-18T06:22:17.787Z,7.67
2019-02-18T06:24:44.817Z,8.58
2019-02-18T06:27:11.958Z,8.00
2019-02-18T06:29:38.987Z,10.20
2019-02-18T06:32:06.045Z,12.13
2019-02-18T06:34:33.078Z,10.48
2019-02-18T06:37:00.135Z,12.13
2019-02-18T06:39:27.165Z,11.50
2019-02-18T06:41:54.212Z,13.43
2019-02-18T06:44:29.856Z,11.10
2019-02-18T06:47:07.022Z,12.53
2019-02-18T06:49:34.275Z,10.23
2019-02-18T06:52:01.428Z,11.28
2019-02-18T06:54:28.472Z,13.75
2019-02-18T06:57:08.422Z,13.28
2019-02-18T06:59:42.367Z,13.50
2019-02-18T07:02:19.440Z,13.18
2019-02-18T07:04:52.884Z,11.88
2019-02-18T07:07:40.520Z,10.03
2019-02-18T07:10:25.642Z,11.28
2019-02-18T07:12:53.202Z,9.58
2019-02-18T07:15:20.246Z,10.85
2019-02-18T07:17:47.265Z,10.50
2019-02-18T07:20:14.285Z,14.43
2019-02-18T07:22:41.346Z,14.55
2019-02-18T07:25:08.918Z,15.15
2019-02-18T07:27:35.967Z,13.70
2019-02-18T07:30:04.138Z,13.90
2019-02-18T07:32:31.481Z,14.68
2019-02-18T07:34:58.505Z,12.63
2019-02-18T07:37:25.536Z,12.40
2019-02-18T07:40:01.069Z,11.00
2019-02-18T07:42:21.512Z,10.72
2019-02-18T07:44:48.558Z,9.75
2019-02-18T07:47:15.599Z,10.63
2019-02-18T07:49:42.625Z,11.20
2019-02-18T07:52:09.691Z,10.78
2019-02-18T07:54:36.726Z,12.37
2019-02-18T07:57:03.750Z,12.80
2019-02-18T07:59:30.995Z,13.55
2019-02-18T08:01:58.033Z,13.93
2019-02-18T08:04:25.085Z,13.58
2019-02-18T08:06:52.116Z,15.03
2019-02-18T08:09:19.155Z,14.07
2019-02-18T08:11:46.191Z,12.28
2019-02-18T08:14:13.240Z,12.18
2019-02-18T08:16:40.293Z,12.30
2019-02-18T08:19:07.377Z,10.23
2019-02-18T08:21:34.392Z,10.08
2019-02-18T08:24:01.460Z,11.83
2019-02-18T08:26:28.529Z,11.08
2019-02-18T08:28:55.555Z,12.45
2019-02-18T08:31:22.604Z,11.90
2019-02-18T08:33:49.646Z,10.72
2019-02-18T08:36:16.727Z,12.00
2019-02-18T08:38:43.773Z,11.25
2019-02-18T08:41:10.820Z,11.43
2019-02-18T08:43:37.859Z,10.90
2019-02-18T08:46:04.889Z,10.10
2019-02-18T08:48:31.939Z,10.13
2019-02-18T08:50:58.984Z,10.60
2019-02-18T08:53:26.027Z,11.38
2019-02-18T08:55:53.071Z,10.53
2019-02-18T08:58:20.118Z,10.63
2019-02-18T09:00:47.159Z,10.30
2019-02-18T09:03:14.206Z,9.08
2019-02-18T09:05:41.240Z,7.83
2019-02-18T09:08:08.295Z,9.70
2019-02-18T09:10:35.334Z,12.58
2019-02-18T09:13:02.415Z,10.85
2019-02-18T09:15:29.490Z,10.45
2019-02-18T09:17:56.536Z,10.28
2019-02-18T09:20:25.640Z,12.95
2019-02-18T09:23:00.866Z,9.55
2019-02-18T09:25:35.722Z,8.78
2019-02-18T09:28:02.774Z,7.72
2019-02-18T09:30:32.209Z,8.15
2019-02-18T09:32:59.253Z,8.68
2019-02-18T09:35:26.288Z,9.28
2019-02-18T09:37:53.322Z,6.60
2019-02-18T09:40:20.368Z,5.45
2019-02-18T09:42:47.408Z,5.83
2019-02-18T09:45:14.941Z,6.00
2019-02-18T09:47:41.985Z,5.05
2019-02-18T09:50:09.112Z,6.35
2019-02-18T09:52:36.158Z,6.62
2019-02-18T09:55:03.345Z,6.87
2019-02-18T09:57:30.374Z,6.25
2019-02-18T09:59:57.432Z,6.60
2019-02-18T10:02:24.468Z,4.55
2019-02-18T10:04:51.518Z,4.83
2019-02-18T10:07:18.560Z,5.50
2019-02-18T10:09:45.615Z,4.90
2019-02-18T10:12:18.325Z,4.75
2019-02-18T10:14:41.628Z,3.98
2019-02-18T10:17:08.682Z,4.00
2019-02-18T10:19:35.763Z,4.12
2019-02-18T10:22:02.816Z,3.80
2019-02-18T10:24:29.893Z,4.72
2019-02-18T10:26:56.967Z,4.28
2019-02-18T10:29:24.025Z,4.03
2019-02-18T10:31:51.073Z,3.95
2019-02-18T10:34:18.111Z,4.35
2019-02-18T10:36:45.169Z,4.67
2019-02-18T10:39:12.199Z,4.17
2019-02-18T10:41:39.231Z,4.90
2019-02-18T10:44:06.269Z,4.85
2019-02-18T10:46:33.319Z,4.40
2019-02-18T10:49:00.365Z,5.15
2019-02-18T10:51:27.404Z,4.80
2019-02-18T10:53:54.457Z,4.85
2019-02-18T10:56:21.494Z,5.20
2019-02-18T10:58:48.539Z,5.30
2019-02-18T11:01:15.599Z,6.60
2019-02-18T11:03:42.663Z,5.67
2019-02-18T11:06:09.712Z,5.20
2019-02-18T11:08:36.798Z,5.30
2019-02-18T11:11:03.849Z,5.33
2019-02-18T11:13:30.904Z,5.15
2019-02-18T11:15:57.967Z,5.27
2019-02-18T11:18:25.236Z,5.35
2019-02-18T11:20:52.308Z,6.30
2019-02-18T11:23:19.356Z,4.40
2019-02-18T11:25:46.601Z,5.20
2019-02-18T11:28:13.656Z,5.90
2019-02-18T11:30:40.725Z,5.40
2019-02-18T11:33:07.791Z,4.60
2019-02-18T11:35:34.869Z,8.93
2019-02-18T11:38:01.929Z,4.40
2019-02-18T11:40:29.000Z,4.70
2019-02-18T11:42:56.046Z,5.63
2019-02-18T11:45:23.098Z,4.60
2019-02-18T11:47:50.172Z,5.20
2019-02-18T11:50:17.192Z,4.43
2019-02-18T11:52:44.216Z,4.83
2019-02-18T11:55:12.582Z,4.70
2019-02-18T11:57:40.129Z,3.90
2019-02-18T12:00:08.647Z,4.80
2019-02-18T12:02:35.690Z,5.30
2019-02-18T12:05:02.838Z,5.70
2019-02-18T12:07:29.879Z,5.03
2019-02-18T12:09:57.046Z,5.73
2019-02-18T12:12:24.164Z,4.80
2019-02-18T12:14:51.192Z,5.40
2019-02-18T12:17:20.768Z,5.50
2019-02-18T12:19:47.588Z,5.53
2019-02-18T12:22:14.630Z,5.30
2019-02-18T12:24:41.689Z,5.97
2019-02-18T12:27:08.733Z,5.43
2019-02-18T12:29:35.769Z,6.03
2019-02-18T12:32:02.846Z,5.60
2019-02-18T12:34:29.884Z,5.50
2019-02-18T12:36:56.912Z,5.73
2019-02-18T12:39:23.960Z,5.90
2019-02-18T12:41:50.992Z,5.40
2019-02-18T12:44:18.058Z,5.73
2019-02-18T12:46:45.103Z,5.77
2019-02-18T12:49:12.149Z,4.60
2019-02-18T12:51:39.201Z,5.63
2019-02-18T12:54:06.463Z,5.20
2019-02-18T12:56:33.516Z,4.73
2019-02-18T12:59:00.565Z,5.03
2019-02-18T13:01:27.874Z,5.83
2019-02-18T13:03:54.961Z,6.03
2019-02-18T13:06:21.995Z,5.70
2019-02-18T13:08:49.065Z,6.33
2019-02-18T13:11:16.105Z,5.77
2019-02-18T13:13:43.141Z,4.83
2019-02-18T13:16:10.312Z,5.60
2019-02-18T13:18:37.475Z,5.53
2019-02-18T13:21:04.522Z,5.50
2019-02-18T13:23:31.588Z,5.60
2019-02-18T13:25:58.644Z,5.57
2019-02-18T13:28:25.710Z,5.40
2019-02-18T13:30:52.781Z,5.80
2019-02-18T13:33:19.846Z,7.00
2019-02-18T13:35:48.759Z,5.77
2019-02-18T13:38:15.952Z,5.43
2019-02-18T13:40:42.998Z,5.50
2019-02-18T13:43:10.058Z,6.13
2019-02-18T13:45:37.144Z,6.57
2019-02-18T13:48:04.193Z,5.53
2019-02-18T13:50:31.249Z,5.17
2019-02-18T13:52:58.305Z,7.00
2019-02-18T13:55:25.541Z,5.90
2019-02-18T13:57:52.587Z,4.90
2019-02-18T14:00:20.285Z,5.00
2019-02-18T14:02:47.849Z,4.50
2019-02-18T14:05:15.124Z,4.10
2019-02-18T14:07:42.197Z,4.43
2019-02-18T14:10:09.284Z,4.40
2019-02-18T14:12:36.754Z,4.60
2019-02-18T14:15:04.245Z,4.23
